Time;durP1;ratioP1;P1;durP2;ratioP2;P2;SDS_P1;SDS_P2;PMS_P1;PMS_P2;Temp;Humidity;BMP_temperature;BMP_pressure;BME280_temperature;BME280_humidity;BME280_pressure;Samples;Min_cycle;Max_cycle;Signal;HPM_P1;HPM_P2
2022/12/31 00:00:58;;;;;;;31.00;23.00;;;;;;;20.01;32.01;101561.23;101279;1325;69165;-86
2022/12/31 00:03:23;;;;;;;31.80;23.90;;;;;;;20.02;32.05;101562.48;101365;1328;69630;-87
2022/12/31 00:05:49;;;;;;;30.10;23.80;;;;;;;20.02;31.93;101566.77;101321;1325;69213;-86
2022/12/31 00:08:14;;;;;;;34.40;24.20;;;;;;;20.03;31.95;101563.52;101339;1322;69204;-87
2022/12/31 00:10:40;;;;;;;31.80;23.90;;;;;;;20.03;31.96;101563.67;101367;1325;69214;-87
2022/12/31 00:13:09;;;;;;;30.20;23.80;;;;;;;20.04;31.95;101564.67;101302;1323;69193;-91
2022/12/31 00:15:35;;;;;;;30.20;23.90;;;;;;;20.05;31.78;101566.79;101304;1325;72609;-87
2022/12/31 00:18:01;;;;;;;31.00;22.90;;;;;;;20.06;31.97;101566.19;101346;1325;69117;-86
2022/12/31 00:20:26;;;;;;;30.80;23.20;;;;;;;20.06;31.92;101569.31;101248;1314;69312;-87
2022/12/31 00:22:52;;;;;;;29.80;22.90;;;;;;;20.07;31.97;101575.21;101397;1326;69200;-87
2022/12/31 00:25:17;;;;;;;29.30;23.10;;;;;;;20.08;32.02;101577.42;101455;1327;69314;-87
2022/12/31 00:27:43;;;;;;;30.30;23.70;;;;;;;20.08;31.89;101576.10;101361;1327;69136;-86
2022/12/31 00:30:09;;;;;;;29.90;23.40;;;;;;;20.09;31.89;101583.38;101346;1327;69200;-86
2022/12/31 00:32:34;;;;;;;31.60;22.40;;;;;;;20.10;31.84;101584.86;101442;1326;69149;-87
2022/12/31 00:35:00;;;;;;;30.30;23.30;;;;;;;20.11;31.85;101589.64;100885;1325;69123;-87
2022/12/31 00:37:26;;;;;;;31.60;23.90;;;;;;;20.11;31.93;101582.85;101400;1330;69223;-87
2022/12/31 00:39:51;;;;;;;29.60;22.10;;;;;;;20.12;31.78;101579.05;101264;1323;69227;-86
2022/12/31 00:42:17;;;;;;;30.50;23.00;;;;;;;20.13;31.79;101572.64;100946;1331;69241;-86
2022/12/31 00:44:42;;;;;;;30.70;23.80;;;;;;;20.15;31.91;101572.25;101394;1325;67860;-87
2022/12/31 00:47:07;;;;;;;31.10;23.50;;;;;;;20.15;31.93;101573.12;101558;1322;69233;-86
2022/12/31 00:49:33;;;;;;;29.40;22.90;;;;;;;20.16;31.83;101580.45;100987;1330;69250;-87
2022/12/31 00:51:58;;;;;;;27.30;22.40;;;;;;;20.17;31.88;101579.70;101326;1325;69338;-91
2022/12/31 00:54:24;;;;;;;30.80;23.30;;;;;;;20.17;31.87;101584.17;101358;1322;67849;-86
2022/12/31 00:56:49;;;;;;;29.00;22.50;;;;;;;20.19;31.79;101588.03;101341;1321;69177;-87
2022/12/31 00:59:15;;;;;;;28.50;23.20;;;;;;;20.20;31.86;101596.42;101278;1320;69167;-87
2022/12/31 01:01:40;;;;;;;31.60;23.20;;;;;;;20.21;31.77;101591.15;100960;1327;74681;-87
2022/12/31 01:04:17;;;;;;;30.80;23.60;;;;;;;20.22;31.75;101588.75;100831;1327;69258;-92
2022/12/31 01:06:42;;;;;;;28.60;23.20;;;;;;;20.23;31.71;101592.34;101278;1325;72439;-87
2022/12/31 01:09:08;;;;;;;29.40;22.30;;;;;;;20.23;31.81;101590.45;101361;1327;69306;-86
2022/12/31 01:11:33;;;;;;;35.50;23.50;;;;;;;20.24;31.71;101586.08;101254;1328;69351;-87
2022/12/31 01:14:00;;;;;;;31.20;24.10;;;;;;;20.25;31.69;101586.83;101407;1327;69311;-87
2022/12/31 01:16:31;;;;;;;30.90;23.50;;;;;;;20.26;31.80;101584.04;101503;1325;69152;-87
2022/12/31 01:19:00;;;;;;;;;;;;;;;20.27;31.87;101586.35;101349;1327;72546;-92
2022/12/31 01:21:26;;;;;;;28.10;22.40;;;;;;;20.25;31.72;101593.88;101259;1327;69220;-86
2022/12/31 01:23:52;;;;;;;29.90;23.50;;;;;;;20.26;31.67;101598.55;101256;1330;69142;-87
2022/12/31 01:26:17;;;;;;;31.00;23.00;;;;;;;20.27;31.77;101597.09;100836;1327;69622;-86
2022/12/31 01:28:43;;;;;;;30.20;23.50;;;;;;;20.27;31.79;101595.30;101264;1319;69531;-87
2022/12/31 01:31:14;;;;;;;31.30;24.00;;;;;;;20.28;31.60;101597.98;100727;1330;69756;-87
2022/12/31 01:33:40;;;;;;;32.30;23.50;;;;;;;20.29;31.66;101595.64;101206;1326;69943;-87
2022/12/31 01:36:19;;;;;;;31.10;24.50;;;;;;;20.29;31.60;101587.11;100831;1327;69207;-87
2022/12/31 01:38:45;;;;;;;32.90;23.90;;;;;;;20.32;31.64;101585.73;101186;1328;82151;-86
2022/12/31 01:41:12;;;;;;;31.50;24.10;;;;;;;20.32;31.63;101581.03;101111;1321;69384;-87
2022/12/31 01:43:53;;;;;;;31.00;24.20;;;;;;;20.32;31.60;101581.97;101183;1327;69204;-87
2022/12/31 01:46:55;;;;;;;31.00;23.90;;;;;;;20.33;31.60;101582.24;101239;1324;69227;-87
2022/12/31 01:49:42;;;;;;;29.80;23.00;;;;;;;20.34;31.63;101585.92;101013;1325;74482;-86
2022/12/31 01:52:39;;;;;;;29.80;23.10;;;;;;;20.35;31.78;101588.85;101140;1324;83083;-87
2022/12/31 01:55:14;;;;;;;31.50;23.70;;;;;;;20.34;31.60;101591.60;101132;1326;72748;-87
2022/12/31 01:57:40;;;;;;;32.20;25.00;;;;;;;20.35;31.57;101593.67;101153;1326;69248;-87
2022/12/31 02:00:06;;;;;;;29.80;24.00;;;;;;;20.36;31.63;101596.23;100806;1327;69199;-87
2022/12/31 02:02:32;;;;;;;31.80;24.10;;;;;;;20.37;31.59;101590.98;100845;1330;69294;-86
2022/12/31 02:04:58;;;;;;;30.70;24.00;;;;;;;20.37;31.66;101588.55;101214;1323;69305;-87
2022/12/31 02:07:23;;;;;;;30.90;24.30;;;;;;;20.37;31.68;101585.48;101277;1326;69181;-87
2022/12/31 02:09:48;;;;;;;30.90;24.50;;;;;;;20.39;31.48;101584.55;101187;1324;69273;-92
2022/12/31 02:12:14;;;;;;;34.00;24.30;;;;;;;20.39;31.47;101584.61;100719;1327;69271;-87
2022/12/31 02:14:45;;;;;;;30.00;24.50;;;;;;;20.39;31.56;101584.66;101248;1323;69068;-86
2022/12/31 02:17:39;;;;;;;31.10;24.70;;;;;;;20.40;31.45;101586.71;101303;1313;72718;-87
2022/12/31 02:20:26;;;;;;;32.10;24.60;;;;;;;20.41;31.44;101593.69;101299;1317;69215;-86
2022/12/31 02:22:57;;;;;;;31.90;24.40;;;;;;;20.41;31.51;101594.46;101316;1325;69046;-87
2022/12/31 02:25:25;;;;;;;33.90;24.60;;;;;;;20.41;31.50;101603.46;101300;1320;74581;-87
2022/12/31 02:28:00;;;;;;;34.20;25.60;;;;;;;20.42;31.50;101610.73;101242;1319;82266;-87
2022/12/31 02:30:26;;;;;;;31.80;24.10;;;;;;;20.42;31.54;101613.66;101174;1319;72454;-86
2022/12/31 02:32:57;;;;;;;32.70;24.70;;;;;;;20.43;31.49;101621.58;100685;1327;69232;-87
2022/12/31 02:35:44;;;;;;;34.10;24.50;;;;;;;20.44;31.52;101637.45;101441;1327;69117;-86
2022/12/31 02:38:17;;;;;;;34.90;25.60;;;;;;;20.45;31.54;101636.45;101368;1325;74399;-87
2022/12/31 02:40:42;;;;;;;31.50;24.60;;;;;;;20.44;31.44;101641.55;101325;1319;82288;-86
2022/12/31 02:43:08;;;;;;;33.80;25.50;;;;;;;20.45;31.42;101643.30;100867;1330;69309;-87
2022/12/31 02:45:37;;;;;;;29.30;24.30;;;;;;;20.45;31.39;101647.45;100594;1322;264005;-91
2022/12/31 02:48:14;;;;;;;34.30;26.30;;;;;;;20.45;31.22;101644.39;100971;1327;69588;-87
2022/12/31 02:50:54;;;;;;;32.90;25.30;;;;;;;20.46;31.37;101638.83;101462;1318;74353;-87
2022/12/31 02:53:51;;;;;;;34.00;25.50;;;;;;;20.46;31.23;101636.23;101523;1316;82440;-86
2022/12/31 02:56:33;;;;;;;31.30;25.40;;;;;;;20.47;31.27;101636.77;101295;1310;73398;-87
2022/12/31 03:02:13;;;;;;;33.10;25.90;;;;;;;20.47;31.30;101635.39;101431;1323;69114;-87
2022/12/31 03:04:39;;;;;;;32.00;25.00;;;;;;;20.47;31.27;101634.25;101096;1327;74712;-87
2022/12/31 03:07:25;;;;;;;33.70;25.50;;;;;;;20.47;31.20;101636.50;101269;1327;69154;-87
2022/12/31 03:09:50;;;;;;;32.40;24.90;;;;;;;20.48;31.24;101637.39;101491;1319;72513;-87
2022/12/31 03:15:05;;;;;;;32.90;25.70;;;;;;;20.49;31.17;101640.08;101222;1327;69139;-86
2022/12/31 03:17:34;;;;;;;33.30;25.90;;;;;;;20.50;31.15;101635.48;101376;1328;74443;-87
2022/12/31 03:22:43;;;;;;;33.20;25.00;;;;;;;20.51;31.22;101634.29;101402;1319;72052;-87
2022/12/31 03:27:59;;;;;;;31.50;24.40;;;;;;;20.52;31.07;101634.14;101277;1322;69191;-87
2022/12/31 03:30:25;;;;;;;33.00;25.90;;;;;;;20.53;31.10;101630.17;101144;1326;74523;-91
2022/12/31 03:32:51;;;;;;;34.50;25.40;;;;;;;20.52;31.17;101627.30;101408;1322;69198;-87
2022/12/31 03:35:19;;;;;;;33.30;25.20;;;;;;;20.53;31.04;101625.27;101393;1326;69179;-87
2022/12/31 03:37:45;;;;;;;35.90;25.00;;;;;;;20.54;31.10;101631.16;101373;1320;69201;-87
2022/12/31 03:40:11;;;;;;;33.30;25.90;;;;;;;20.54;31.06;101629.22;101386;1326;69242;-86
2022/12/31 03:42:37;;;;;;;32.10;24.40;;;;;;;20.54;31.04;101632.82;101817;1320;69195;-89
2022/12/31 03:45:03;;;;;;;30.90;24.10;;;;;;;20.56;30.98;101631.25;101708;1320;69171;-87
2022/12/31 03:47:28;;;;;;;33.80;25.10;;;;;;;20.56;30.93;101632.90;101750;1320;69398;-87
2022/12/31 03:49:54;;;;;;;32.90;25.00;;;;;;;20.56;31.04;101628.86;101600;1322;69279;-86
2022/12/31 03:52:19;;;;;;;33.90;24.60;;;;;;;20.57;30.89;101640.40;101438;1320;74831;-87
2022/12/31 03:54:45;;;;;;;33.30;24.90;;;;;;;20.58;30.97;101645.52;101310;1322;69191;-87
2022/12/31 03:57:10;;;;;;;34.60;25.00;;;;;;;20.58;30.99;101648.54;101369;1312;69588;-86
2022/12/31 03:59:35;;;;;;;32.10;24.30;;;;;;;20.59;31.01;101653.50;100846;1330;69209;-87
2022/12/31 04:02:01;;;;;;;33.40;24.90;;;;;;;20.59;30.97;101656.23;101383;1329;69235;-87
2022/12/31 04:04:26;;;;;;;31.90;24.70;;;;;;;20.59;30.92;101658.21;100773;1327;69216;-87
2022/12/31 04:06:52;;;;;;;29.30;23.70;;;;;;;20.60;30.89;101660.59;101417;1325;69220;-87
2022/12/31 04:09:18;;;;;;;31.80;24.80;;;;;;;20.60;30.85;101663.81;101283;1323;69212;-92
2022/12/31 04:11:43;;;;;;;30.00;24.50;;;;;;;20.61;30.78;101663.05;101370;1327;69318;-86
2022/12/31 04:14:10;;;;;;;33.80;26.10;;;;;;;20.61;30.82;101663.67;101393;1327;82108;-86
2022/12/31 04:16:35;;;;;;;33.30;25.30;;;;;;;20.62;30.82;101662.11;101357;1312;69161;-87
2022/12/31 04:19:01;;;;;;;33.20;25.30;;;;;;;20.63;30.74;101656.75;101405;1320;69090;-87
2022/12/31 04:21:26;;;;;;;32.70;24.70;;;;;;;20.63;30.63;101652.20;101549;1318;69101;-88
2022/12/31 04:23:51;;;;;;;35.50;24.80;;;;;;;20.62;30.77;101655.16;101285;1327;69423;-87
2022/12/31 04:26:17;;;;;;;33.90;24.50;;;;;;;20.63;30.68;101659.16;101477;1323;69180;-87
2022/12/31 04:28:42;;;;;;;34.20;26.00;;;;;;;20.64;30.67;101657.85;101389;1323;69296;-86
2022/12/31 04:31:10;;;;;;;34.40;26.00;;;;;;;20.64;30.64;101656.48;101377;1327;69320;-87
2022/12/31 04:33:35;;;;;;;36.30;26.90;;;;;;;20.65;30.82;101657.00;101719;1324;69183;-87
2022/12/31 04:36:02;;;;;;;32.00;26.10;;;;;;;20.64;30.62;101658.94;102440;1327;67723;-87
2022/12/31 04:38:30;;;;;;;35.10;26.80;;;;;;;20.65;30.59;101654.09;102413;1320;69141;-87
2022/12/31 04:43:40;;;;;;;36.00;27.10;;;;;;;20.66;30.61;101653.24;101927;1328;69183;-87
2022/12/31 04:46:06;;;;;;;34.90;26.60;;;;;;;20.66;30.64;101659.08;101411;1320;69127;-87
2022/12/31 04:48:32;;;;;;;35.10;27.50;;;;;;;20.68;30.50;101658.86;101638;1324;69279;-87
2022/12/31 04:50:58;;;;;;;34.90;27.10;;;;;;;20.68;30.54;101661.78;101527;1320;69207;-87
2022/12/31 04:53:23;;;;;;;36.90;27.10;;;;;;;20.70;30.44;101666.05;101209;1327;70155;-87
2022/12/31 04:55:49;;;;;;;36.40;28.40;;;;;;;20.71;30.50;101673.23;101625;1327;69150;-87
2022/12/31 04:58:15;;;;;;;33.60;26.50;;;;;;;20.71;30.41;101680.54;101332;1320;82183;-87
2022/12/31 05:00:40;;;;;;;35.00;27.50;;;;;;;20.71;30.45;101688.31;101338;1324;69140;-87
2022/12/31 05:03:06;;;;;;;35.40;26.50;;;;;;;20.71;30.47;101691.30;101431;1319;69202;-91
2022/12/31 05:05:31;;;;;;;35.30;27.70;;;;;;;20.71;30.45;101692.16;101338;1325;69302;-87
2022/12/31 05:07:57;;;;;;;36.50;26.70;;;;;;;20.72;30.37;101694.63;101519;1310;69177;-87
2022/12/31 05:10:22;;;;;;;35.80;27.50;;;;;;;20.72;30.24;101689.80;101229;1322;69227;-87
2022/12/31 05:12:48;;;;;;;34.40;27.40;;;;;;;20.72;30.35;101693.19;101379;1320;69203;-87
2022/12/31 05:15:13;;;;;;;37.30;27.60;;;;;;;20.71;30.32;101695.29;101329;1323;69204;-92
2022/12/31 05:17:39;;;;;;;33.90;27.20;;;;;;;20.72;30.22;101698.16;101107;1324;69262;-86
2022/12/31 05:20:04;;;;;;;32.10;26.10;;;;;;;20.72;30.25;101696.47;101278;1327;73381;-87
2022/12/31 05:22:30;;;;;;;34.50;26.80;;;;;;;20.72;30.28;101697.40;100734;1327;69144;-86
2022/12/31 05:24:56;;;;;;;34.30;27.30;;;;;;;20.72;30.17;101704.57;100874;1329;69310;-87
2022/12/31 05:27:22;;;;;;;34.70;26.30;;;;;;;20.72;30.23;101709.16;101331;1328;69084;-87
2022/12/31 05:29:47;;;;;;;34.80;26.70;;;;;;;20.72;30.21;101712.53;101186;1326;69243;-87
2022/12/31 05:32:13;;;;;;;33.80;26.80;;;;;;;20.72;30.30;101713.00;101282;1327;69247;-87
2022/12/31 05:34:38;;;;;;;38.20;26.70;;;;;;;20.73;30.19;101718.52;101295;1321;69289;-86
2022/12/31 05:37:03;;;;;;;33.20;26.20;;;;;;;20.73;30.31;101723.90;101296;1326;69199;-86
2022/12/31 05:39:29;;;;;;;35.90;27.80;;;;;;;20.73;30.23;101724.72;101207;1330;69212;-87
2022/12/31 05:41:55;;;;;;;33.50;26.00;;;;;;;20.73;30.19;101724.16;101234;1327;69210;-91
2022/12/31 05:44:20;;;;;;;35.90;26.90;;;;;;;20.73;30.31;101730.98;101258;1330;69044;-87
2022/12/31 05:46:46;;;;;;;33.20;26.50;;;;;;;20.73;30.09;101732.19;101284;1327;69281;-86
2022/12/31 05:49:11;;;;;;;33.70;26.70;;;;;;;20.73;30.15;101736.03;101295;1327;69200;-87
2022/12/31 05:51:37;;;;;;;34.90;27.30;;;;;;;20.74;30.27;101742.69;101242;1318;69206;-87
2022/12/31 05:54:02;;;;;;;31.90;25.60;;;;;;;20.74;30.34;101750.63;101285;1322;69311;-92
2022/12/31 05:56:28;;;;;;;37.30;27.30;;;;;;;20.75;30.08;101756.78;101288;1312;69223;-87
2022/12/31 05:58:53;;;;;;;35.50;27.30;;;;;;;20.75;30.04;101757.64;101367;1327;69177;-87
2022/12/31 06:01:19;;;;;;;33.00;26.40;;;;;;;20.75;30.05;101755.55;100730;1310;69219;-86
2022/12/31 06:03:45;;;;;;;34.90;27.40;;;;;;;20.76;30.11;101753.44;101302;1320;69221;-87
2022/12/31 06:06:11;;;;;;;35.20;26.40;;;;;;;20.76;30.06;101751.90;101285;1320;69238;-87
2022/12/31 06:08:36;;;;;;;34.40;27.00;;;;;;;20.76;29.96;101749.58;101160;1324;82133;-87
2022/12/31 06:11:01;;;;;;;35.10;26.90;;;;;;;20.76;29.90;101752.30;101217;1327;69832;-87
2022/12/31 06:13:27;;;;;;;35.80;26.80;;;;;;;20.77;30.03;101749.85;101169;1327;69162;-87
2022/12/31 06:15:52;;;;;;;35.00;26.80;;;;;;;20.77;30.04;101751.80;101176;1327;69166;-86
2022/12/31 06:18:18;;;;;;;34.40;27.00;;;;;;;20.78;30.01;101752.73;101297;1327;66801;-87
2022/12/31 06:20:43;;;;;;;32.80;26.60;;;;;;;20.78;30.10;101752.16;101237;1325;69095;-87
2022/12/31 06:23:09;;;;;;;34.10;27.30;;;;;;;20.78;29.89;101757.30;101137;1326;69244;-86
2022/12/31 06:25:35;;;;;;;35.30;26.50;;;;;;;20.78;29.99;101759.45;101251;1324;69267;-86
2022/12/31 06:28:02;;;;;;;36.30;28.00;;;;;;;20.79;29.87;101768.63;101273;1327;69224;-86
2022/12/31 06:30:28;;;;;;;34.50;26.60;;;;;;;20.79;30.02;101772.27;100737;1330;69206;-86
2022/12/31 06:32:54;;;;;;;33.70;26.70;;;;;;;20.79;29.82;101773.53;101200;1330;69443;-87
2022/12/31 06:35:19;;;;;;;33.40;26.40;;;;;;;20.80;29.91;101777.54;101146;1327;69141;-86
2022/12/31 06:37:45;;;;;;;36.40;26.70;;;;;;;20.80;30.00;101779.84;101190;1330;69288;-87
2022/12/31 06:40:11;;;;;;;33.40;27.10;;;;;;;20.81;29.84;101779.04;100598;1322;69240;-87
2022/12/31 06:42:36;;;;;;;36.00;27.80;;;;;;;20.80;29.83;101782.50;101291;1323;69388;-86
2022/12/31 06:45:02;;;;;;;32.90;26.30;;;;;;;20.80;29.90;101785.88;101274;1322;69168;-87
2022/12/31 06:47:27;;;;;;;34.20;27.00;;;;;;;20.81;29.87;101785.69;101202;1327;74548;-87
2022/12/31 06:49:53;;;;;;;33.10;25.90;;;;;;;20.81;29.95;101790.75;101137;1327;69285;-87
2022/12/31 06:52:18;;;;;;;35.40;27.30;;;;;;;20.81;29.71;101804.07;101333;1323;69065;-87
2022/12/31 06:54:44;;;;;;;36.90;28.10;;;;;;;20.82;29.83;101817.23;101171;1319;69155;-87
2022/12/31 06:57:10;;;;;;;33.90;26.30;;;;;;;20.82;29.80;101824.91;101356;1327;69293;-87
2022/12/31 06:59:36;;;;;;;33.80;26.80;;;;;;;20.83;29.76;101826.66;101296;1327;82206;-87
2022/12/31 07:02:35;;;;;;;34.40;26.80;;;;;;;20.82;29.83;101822.81;101282;1330;69180;-87
2022/12/31 07:05:26;;;;;;;33.80;26.00;;;;;;;20.83;29.76;101828.88;101433;1325;67470;-86
2022/12/31 07:08:07;;;;;;;35.60;27.70;;;;;;;20.84;29.91;101825.39;101439;1327;69215;-87
2022/12/31 07:10:58;;;;;;;34.90;27.00;;;;;;;20.84;29.71;101820.49;101408;1320;75009;-86
2022/12/31 07:13:47;;;;;;;31.40;25.90;;;;;;;20.84;29.75;101821.36;101419;1323;82136;-87
2022/12/31 07:16:19;;;;;;;34.60;27.10;;;;;;;20.85;29.76;101830.02;101488;1327;72700;-87
2022/12/31 07:18:57;;;;;;;33.20;26.30;;;;;;;20.85;29.83;101830.59;101377;1322;69205;-87
2022/12/31 07:21:43;;;;;;;32.60;26.00;;;;;;;20.86;29.86;101837.66;101361;1324;69193;-87
2022/12/31 07:24:10;;;;;;;34.90;27.80;;;;;;;20.87;29.84;101836.02;101352;1327;74392;-87
2022/12/31 07:26:52;;;;;;;33.20;27.00;;;;;;;20.89;29.77;101836.00;101359;1330;83089;-92
2022/12/31 07:29:45;;;;;;;34.90;27.80;;;;;;;20.91;29.86;101836.80;101367;1327;72520;-87
2022/12/31 07:32:10;;;;;;;34.40;27.20;;;;;;;20.93;29.90;101834.55;101281;1326;69129;-86
2022/12/31 07:34:39;;;;;;;33.90;26.60;;;;;;;20.94;29.89;101836.46;101397;1326;69355;-87
2022/12/31 07:37:49;;;;;;;34.50;27.10;;;;;;;20.96;29.88;101832.20;101517;1323;74539;-87
2022/12/31 07:40:52;;;;;;;33.90;27.40;;;;;;;20.98;29.75;101836.23;101557;1322;83766;-87
2022/12/31 07:43:37;;;;;;;35.20;27.50;;;;;;;21.01;29.75;101839.84;101415;1322;72435;-87
2022/12/31 07:46:45;;;;;;;35.10;26.70;;;;;;;21.03;29.70;101844.75;101462;1325;69049;-87
2022/12/31 07:49:11;;;;;;;32.90;25.40;;;;;;;21.05;29.73;101845.85;101317;1326;69090;-87
2022/12/31 07:51:37;;;;;;;33.40;25.90;;;;;;;21.07;29.65;101841.34;101416;1319;69682;-86
2022/12/31 07:54:02;;;;;;;36.70;27.40;;;;;;;21.08;29.66;101845.27;101278;1320;69192;-87
2022/12/31 07:56:28;;;;;;;33.00;26.50;;;;;;;21.10;29.76;101847.04;100883;1327;69287;-92
2022/12/31 07:59:12;;;;;;;34.00;25.80;;;;;;;21.11;29.66;101851.16;100927;1327;69209;-86
2022/12/31 08:01:51;;;;;;;34.80;26.50;;;;;;;21.13;29.81;101854.38;101445;1327;69056;-87
2022/12/31 08:04:44;;;;;;;31.50;26.40;;;;;;;21.14;29.81;101861.55;101486;1311;74499;-87
2022/12/31 08:07:29;;;;;;;31.40;25.70;;;;;;;21.15;29.71;101859.23;101410;1327;82287;-86
2022/12/31 08:10:16;;;;;;;32.40;26.60;;;;;;;21.16;29.63;101860.17;101644;1323;72467;-87
2022/12/31 08:12:41;;;;;;;31.60;26.60;;;;;;;21.16;29.64;101856.77;101658;1325;69504;-87
2022/12/31 08:15:15;;;;;;;34.20;26.70;;;;;;;21.17;29.60;101856.31;101606;1314;69257;-87
2022/12/31 08:17:40;;;;;;;33.80;26.60;;;;;;;21.19;29.66;101859.16;101266;1329;74591;-87
2022/12/31 08:20:06;;;;;;;32.00;25.90;;;;;;;21.20;29.69;101867.25;101453;1323;69224;-87
2022/12/31 08:22:44;;;;;;;29.40;25.00;;;;;;;21.20;29.65;101869.46;101360;1327;69110;-86
2022/12/31 08:25:24;;;;;;;30.40;25.30;;;;;;;21.21;29.65;101858.98;101682;1317;69192;-87
2022/12/31 08:28:07;;;;;;;34.40;26.80;;;;;;;21.21;29.65;101864.58;101644;1319;69076;-87
2022/12/31 08:30:51;;;;;;;33.30;26.20;;;;;;;21.22;29.59;101855.52;101750;1317;74648;-86
2022/12/31 08:33:28;;;;;;;32.80;26.10;;;;;;;21.23;29.68;101855.95;101612;1323;82294;-87
2022/12/31 08:36:16;;;;;;;35.40;26.60;;;;;;;21.25;29.55;101856.35;101426;1323;73341;-87
2022/12/31 08:38:47;;;;;;;31.70;25.90;;;;;;;21.25;29.73;101859.64;101541;1324;68916;-87
2022/12/31 08:41:12;;;;;;;31.50;26.10;;;;;;;21.26;29.69;101851.25;101414;1319;69063;-86
2022/12/31 08:44:20;;;;;;;33.70;26.30;;;;;;;21.26;29.54;101843.08;101246;1323;69172;-87
2022/12/31 08:47:04;;;;;;;33.50;26.20;;;;;;;21.27;29.54;101842.33;100967;1333;83297;-87
2022/12/31 08:49:32;;;;;;;35.00;28.00;;;;;;;21.27;29.79;101842.71;101185;1327;72332;-87
2022/12/31 08:51:58;;;;;;;31.00;25.50;;;;;;;21.28;29.67;101841.29;101226;1322;69109;-86
2022/12/31 08:54:24;;;;;;;30.70;25.50;;;;;;;21.29;29.66;101836.27;101536;1325;69095;-87
2022/12/31 08:57:20;;;;;;;33.10;26.70;;;;;;;21.30;29.60;101839.43;101265;1323;69349;-86
2022/12/31 09:00:16;;;;;;;33.60;25.20;;;;;;;21.30;29.56;101841.42;101393;1317;82171;-87
2022/12/31 09:03:09;;;;;;;34.00;26.00;;;;;;;21.31;29.54;101842.36;101390;1327;73535;-87
2022/12/31 09:06:04;;;;;;;31.10;25.80;;;;;;;21.31;29.58;101846.77;101453;1326;69074;-87
2022/12/31 09:08:46;;;;;;;34.70;27.00;;;;;;;21.32;29.61;101845.49;101490;1324;69113;-87
2022/12/31 09:11:17;;;;;;;31.20;26.20;;;;;;;21.33;29.71;101845.15;101341;1326;74300;-92
2022/12/31 09:14:12;;;;;;;33.90;26.10;;;;;;;21.34;29.64;101837.80;101212;1326;82177;-87
2022/12/31 09:16:53;;;;;;;33.40;26.00;;;;;;;21.35;29.65;101825.84;101345;1325;72604;-86
2022/12/31 09:19:18;;;;;;;35.30;27.00;;;;;;;21.36;29.66;101828.27;101420;1318;69113;-87
2022/12/31 09:21:44;;;;;;;32.30;26.30;;;;;;;21.37;29.69;101825.52;101395;1323;69150;-87
2022/12/31 09:24:13;;;;;;;32.90;25.80;;;;;;;21.38;29.65;101823.52;101417;1327;69156;-87
2022/12/31 09:27:18;;;;;;;31.40;26.00;;;;;;;21.39;29.70;101821.46;101045;1322;82163;-87
2022/12/31 09:29:48;;;;;;;30.70;25.10;;;;;;;21.39;29.75;101824.81;101469;1327;72613;-87
2022/12/31 09:32:43;;;;;;;32.40;26.00;;;;;;;21.40;29.64;101822.67;101560;1322;69456;-92
2022/12/31 09:35:42;;;;;;;28.90;23.80;;;;;;;21.41;29.76;101819.57;101333;1320;69264;-91
2022/12/31 09:38:15;;;;;;;32.40;25.30;;;;;;;21.43;29.71;101819.90;101392;1324;74549;-91
2022/12/31 09:40:49;;;;;;;29.30;24.30;;;;;;;21.44;29.73;101818.34;101372;1325;83104;-87
2022/12/31 09:43:52;;;;;;;30.70;24.70;;;;;;;21.46;29.78;101814.33;101394;1327;73487;-87
2022/12/31 09:46:26;;;;;;;33.00;24.30;;;;;;;21.47;29.62;101803.15;101473;1320;69588;-87
2022/12/31 09:49:22;;;;;;;32.50;24.80;;;;;;;21.48;29.70;101805.98;101394;1327;69146;-87
2022/12/31 09:52:00;;;;;;;30.90;24.00;;;;;;;21.50;29.64;101811.29;101456;1325;74532;-87
2022/12/31 09:55:14;;;;;;;31.80;25.20;;;;;;;21.52;29.84;101809.94;101333;1327;83209;-86
2022/12/31 09:58:19;;;;;;;31.70;24.30;;;;;;;21.54;29.60;101810.14;101150;1330;73794;-87
2022/12/31 10:01:21;;;;;;;34.10;24.60;;;;;;;21.56;29.59;101810.36;101281;1324;69073;-87
2022/12/31 10:04:09;;;;;;;33.50;24.60;;;;;;;21.57;29.61;101804.76;101514;1326;69234;-87
2022/12/31 10:06:50;;;;;;;31.10;24.60;;;;;;;21.58;29.61;101801.45;101425;1326;74565;-87
2022/12/31 10:09:30;;;;;;;;;;;;;;;21.59;29.67;101799.47;101489;1327;82314;-87
2022/12/31 10:12:21;;;;;;;29.60;23.10;;;;;;;21.59;29.74;101795.77;101445;1327;73408;-87
2022/12/31 10:15:30;;;;;;;32.30;23.60;;;;;;;21.61;29.64;101792.58;101283;1320;69049;-87
2022/12/31 10:18:22;;;;;;;27.70;22.80;;;;;;;21.62;29.68;101787.21;101473;1323;68389;-87
2022/12/31 10:21:09;;;;;;;27.70;23.10;;;;;;;21.65;29.86;101796.48;101451;1310;73916;-87
2022/12/31 10:24:00;;;;;;;28.40;22.90;;;;;;;21.66;29.84;101796.55;101503;1323;83425;-87
2022/12/31 10:26:58;;;;;;;30.60;24.00;;;;;;;21.67;29.77;101789.99;101407;1327;72666;-87
2022/12/31 10:29:55;;;;;;;31.70;23.30;;;;;;;21.68;29.84;101786.95;101379;1326;69313;-87
2022/12/31 10:32:59;;;;;;;29.20;22.80;;;;;;;21.69;29.59;101778.30;101441;1321;69338;-87
2022/12/31 10:35:50;;;;;;;28.10;22.70;;;;;;;21.69;29.74;101778.05;101408;1324;74625;-87
2022/12/31 10:38:37;;;;;;;32.50;22.50;;;;;;;21.69;29.74;101770.89;101412;1327;82475;-87
2022/12/31 10:41:17;;;;;;;29.00;23.10;;;;;;;21.69;29.72;101776.66;101391;1317;73511;-87
2022/12/31 10:43:49;;;;;;;26.60;21.50;;;;;;;21.70;29.90;101771.06;101405;1323;69207;-87
2022/12/31 10:46:54;;;;;;;29.70;23.30;;;;;;;21.71;29.83;101769.89;101453;1326;69527;-87
2022/12/31 10:50:07;;;;;;;31.40;22.50;;;;;;;21.72;29.86;101765.11;101319;1325;75706;-87
2022/12/31 10:52:39;;;;;;;26.20;21.10;;;;;;;21.73;30.05;101758.05;101147;1326;81976;-87
2022/12/31 10:55:26;;;;;;;26.90;21.10;;;;;;;21.74;29.86;101757.75;101332;1323;73333;-87
2022/12/31 10:58:22;;;;;;;30.50;22.30;;;;;;;21.75;29.86;101753.73;101415;1319;69149;-87
2022/12/31 11:00:55;;;;;;;29.10;22.10;;;;;;;21.76;29.97;101756.02;101422;1320;69219;-87
2022/12/31 11:03:21;;;;;;;26.80;20.80;;;;;;;21.77;29.89;101753.77;100956;1328;75463;-87
2022/12/31 11:06:05;;;;;;;29.60;22.60;;;;;;;21.78;30.08;101750.45;101465;1325;69213;-87
2022/12/31 11:08:33;;;;;;;27.30;21.90;;;;;;;21.81;29.91;101751.52;101422;1325;73722;-87
2022/12/31 11:11:26;;;;;;;26.70;21.60;;;;;;;21.82;29.99;101749.28;101332;1323;69049;-87
2022/12/31 11:14:19;;;;;;;26.30;20.20;;;;;;;21.82;29.93;101742.73;101295;1320;69151;-88
2022/12/31 11:17:23;;;;;;;28.90;21.50;;;;;;;21.83;30.01;101736.64;101387;1325;74694;-91
2022/12/31 11:20:09;;;;;;;28.50;20.60;;;;;;;21.84;30.00;101739.17;101038;1333;83134;-92
2022/12/31 11:22:43;;;;;;;25.80;20.70;;;;;;;21.85;30.01;101737.10;101391;1319;73516;-87
2022/12/31 11:25:21;;;;;;;24.30;19.80;;;;;;;21.87;30.04;101735.89;101368;1327;67777;-86
2022/12/31 11:28:08;;;;;;;27.70;20.70;;;;;;;21.87;29.98;101730.21;101542;1321;69318;-87
2022/12/31 11:30:47;;;;;;;25.90;20.20;;;;;;;21.88;30.09;101725.00;101238;1328;75327;-87
2022/12/31 11:33:45;;;;;;;26.90;20.10;;;;;;;21.89;30.19;101724.96;101427;1324;83031;-87
2022/12/31 11:36:40;;;;;;;26.80;20.10;;;;;;;21.91;30.13;101721.23;101605;1318;72339;-87
2022/12/31 11:39:27;;;;;;;26.90;19.90;;;;;;;21.92;30.20;101721.63;101554;1319;69206;-87
2022/12/31 11:42:18;;;;;;;26.60;19.70;;;;;;;21.94;30.04;101728.41;101455;1319;69170;-87
2022/12/31 11:44:53;;;;;;;;;;;;;;;21.95;30.08;101733.75;101693;1322;75600;-87
2022/12/31 11:47:18;;;;;;;27.90;19.70;;;;;;;21.94;30.24;101736.05;101795;1324;82070;-87